RYR8056 EDDK-LGKR
Flight info
| Callsign | RYR8056 |
|---|---|
| Flight time | 2h 9m |
| Altitude | 37000 |
| Route | KUMIK1R KUMIK L603 TESGA DCT ESATI DCT DETEV DCT DINKU M867 XERUM DCT BAVAX DCT RADIZ DCT AIOSA DCT ENOXA/N0344F190 L862 KAPPO L995 TIGRA T75 BEDEX |
| Aircraft | B738/M-SDE2E3FGHIRWXY/LB1 |
Departure
| Time | 2026-04-26 09:00 |
|---|---|
| Airport | Cologne Bonn Airport (EDDK) |
Arrival
| Time | 2026-04-26 11:10 |
|---|---|
| Airport | Corfu Ioannis Kapodistrias International Airport (LGKR) |
| Time | Latitude | Longitude | Altitude | Speed | Heading |
|---|---|---|---|---|---|
| 2026-04-26 08:41 | 50.87720 | 7.12155 | 231 ft | 0 kts | 51° |
| 2026-04-26 08:52 | 50.87706 | 7.12130 | 231 ft | 4 kts | 35° |
| 2026-04-26 08:52 | 50.87688 | 7.12119 | 232 ft | 2 kts | 359° |
| 2026-04-26 08:52 | 50.87662 | 7.12118 | 232 ft | 4 kts | 22° |
| 2026-04-26 08:52 | 50.87644 | 7.12094 | 235 ft | 4 kts | 62° |
| 2026-04-26 08:53 | 50.87641 | 7.12059 | 234 ft | 4 kts | 117° |
| 2026-04-26 08:53 | 50.87651 | 7.12032 | 234 ft | 0 kts | 117° |
| 2026-04-26 08:55 | 50.87651 | 7.12033 | 231 ft | 0 kts | 117° |
| 2026-04-26 08:56 | 50.87642 | 7.12058 | 232 ft | 6 kts | 117° |
| 2026-04-26 08:56 | 50.87625 | 7.12111 | 233 ft | 10 kts | 117° |
| 2026-04-26 08:56 | 50.87582 | 7.12240 | 233 ft | 10 kts | 118° |
| 2026-04-26 08:56 | 50.87546 | 7.12348 | 231 ft | 11 kts | 117° |
| 2026-04-26 08:57 | 50.87572 | 7.12448 | 231 ft | 11 kts | 27° |
| 2026-04-26 08:57 | 50.87644 | 7.12488 | 231 ft | 11 kts | 18° |
| 2026-04-26 08:57 | 50.87714 | 7.12523 | 231 ft | 10 kts | 17° |
| 2026-04-26 08:57 | 50.87763 | 7.12605 | 231 ft | 12 kts | 72° |
| 2026-04-26 08:58 | 50.87788 | 7.12757 | 231 ft | 16 kts | 76° |
| 2026-04-26 08:58 | 50.87814 | 7.12919 | 234 ft | 15 kts | 76° |
| 2026-04-26 08:58 | 50.87840 | 7.13074 | 238 ft | 14 kts | 65° |
| 2026-04-26 08:58 | 50.87871 | 7.13158 | 238 ft | 6 kts | 102° |
| 2026-04-26 08:59 | 50.87857 | 7.13185 | 238 ft | 0 kts | 138° |
| 2026-04-26 08:59 | 50.87825 | 7.13231 | 238 ft | 26 kts | 138° |
| 2026-04-26 08:59 | 50.87518 | 7.13675 | 239 ft | 92 kts | 137° |
| 2026-04-26 09:00 | 50.86893 | 7.14581 | 260 ft | 145 kts | 137° |
| 2026-04-26 09:00 | 50.86059 | 7.15802 | 382 ft | 179 kts | 136° |
| 2026-04-26 09:00 | 50.85149 | 7.17101 | 1198 ft | 174 kts | 136° |
| 2026-04-26 09:00 | 50.84237 | 7.18369 | 1905 ft | 179 kts | 137° |
| 2026-04-26 09:01 | 50.83219 | 7.19789 | 2093 ft | 209 kts | 137° |
| 2026-04-26 09:01 | 50.82126 | 7.21409 | 2495 ft | 219 kts | 127° |
| 2026-04-26 09:01 | 50.81494 | 7.23579 | 3107 ft | 219 kts | 105° |
| 2026-04-26 09:01 | 50.81195 | 7.26004 | 3484 ft | 231 kts | 97° |
| 2026-04-26 09:02 | 50.80984 | 7.28603 | 3846 ft | 250 kts | 96° |
| 2026-04-26 09:02 | 50.80766 | 7.31404 | 4383 ft | 261 kts | 95° |
| 2026-04-26 09:02 | 50.80536 | 7.34287 | 5128 ft | 267 kts | 95° |
| 2026-04-26 09:02 | 50.80143 | 7.37188 | 5782 ft | 275 kts | 107° |
| 2026-04-26 09:03 | 50.79400 | 7.40006 | 6502 ft | 281 kts | 112° |
| 2026-04-26 09:03 | 50.78570 | 7.42839 | 7134 ft | 287 kts | 113° |
| 2026-04-26 09:03 | 50.77720 | 7.45711 | 7833 ft | 289 kts | 113° |
| 2026-04-26 09:03 | 50.76869 | 7.48606 | 8538 ft | 292 kts | 112° |
| 2026-04-26 09:04 | 50.76019 | 7.51547 | 9247 ft | 295 kts | 112° |
| 2026-04-26 09:04 | 50.75170 | 7.54516 | 9974 ft | 299 kts | 112° |
| 2026-04-26 09:04 | 50.74311 | 7.57534 | 10579 ft | 305 kts | 112° |
| 2026-04-26 09:04 | 50.73419 | 7.60703 | 10782 ft | 326 kts | 112° |
| 2026-04-26 09:05 | 50.72471 | 7.64074 | 11005 ft | 345 kts | 112° |
| 2026-04-26 09:05 | 50.71481 | 7.67591 | 11480 ft | 354 kts | 112° |
| 2026-04-26 09:05 | 50.70477 | 7.71157 | 12134 ft | 357 kts | 112° |
| 2026-04-26 09:05 | 50.69464 | 7.74753 | 12853 ft | 359 kts | 113° |
| 2026-04-26 09:06 | 50.68777 | 7.77187 | 13339 ft | 361 kts | 113° |
| 2026-04-26 09:06 | 50.67751 | 7.80827 | 14033 ft | 365 kts | 113° |
| 2026-04-26 09:06 | 50.66714 | 7.84497 | 14661 ft | 369 kts | 113° |
| 2026-04-26 09:06 | 50.65667 | 7.88200 | 15311 ft | 371 kts | 114° |
| 2026-04-26 09:07 | 50.64612 | 7.91926 | 15988 ft | 374 kts | 114° |
| 2026-04-26 09:07 | 50.63545 | 7.95692 | 16648 ft | 378 kts | 114° |
| 2026-04-26 09:07 | 50.62480 | 7.99439 | 17261 ft | 381 kts | 114° |
| 2026-04-26 09:07 | 50.61376 | 8.03322 | 17900 ft | 386 kts | 114° |
| 2026-04-26 09:08 | 50.60288 | 8.07142 | 18536 ft | 389 kts | 114° |
| 2026-04-26 09:08 | 50.59156 | 8.11107 | 19068 ft | 393 kts | 114° |
| 2026-04-26 09:08 | 50.58033 | 8.15037 | 19677 ft | 394 kts | 115° |
| 2026-04-26 09:08 | 50.56921 | 8.18922 | 20263 ft | 396 kts | 115° |
| 2026-04-26 09:09 | 50.55780 | 8.22900 | 20745 ft | 401 kts | 115° |
| 2026-04-26 09:09 | 50.54612 | 8.26968 | 21245 ft | 405 kts | 115° |
| 2026-04-26 09:09 | 50.53465 | 8.30953 | 21834 ft | 406 kts | 115° |
| 2026-04-26 09:09 | 50.52295 | 8.35014 | 22357 ft | 409 kts | 115° |
| 2026-04-26 09:10 | 50.51099 | 8.39157 | 22840 ft | 413 kts | 115° |
| 2026-04-26 09:10 | 50.49920 | 8.43234 | 23320 ft | 416 kts | 115° |
| 2026-04-26 09:10 | 50.48717 | 8.47390 | 23824 ft | 420 kts | 115° |
| 2026-04-26 09:10 | 50.47505 | 8.51574 | 24249 ft | 422 kts | 115° |
| 2026-04-26 09:11 | 50.46266 | 8.55836 | 24666 ft | 425 kts | 115° |
| 2026-04-26 09:11 | 50.44978 | 8.59951 | 25068 ft | 427 kts | 122° |
| 2026-04-26 09:11 | 50.43283 | 8.63765 | 25475 ft | 427 kts | 131° |
| 2026-04-26 09:11 | 50.41211 | 8.67122 | 25885 ft | 428 kts | 137° |
| 2026-04-26 09:12 | 50.39049 | 8.70329 | 26287 ft | 430 kts | 138° |
| 2026-04-26 09:12 | 50.36862 | 8.73540 | 26678 ft | 431 kts | 138° |
| 2026-04-26 09:12 | 50.34669 | 8.76770 | 27054 ft | 434 kts | 138° |
| 2026-04-26 09:12 | 50.32466 | 8.80036 | 27415 ft | 436 kts | 138° |
| 2026-04-26 09:13 | 50.30266 | 8.83315 | 27799 ft | 438 kts | 138° |
| 2026-04-26 09:13 | 50.28060 | 8.86613 | 28188 ft | 439 kts | 138° |
| 2026-04-26 09:13 | 50.25848 | 8.89923 | 28537 ft | 442 kts | 138° |
| 2026-04-26 09:13 | 50.23619 | 8.93256 | 28875 ft | 444 kts | 138° |
| 2026-04-26 09:14 | 50.21383 | 8.96596 | 29217 ft | 446 kts | 138° |
| 2026-04-26 09:14 | 50.19135 | 8.99947 | 29558 ft | 448 kts | 139° |
| 2026-04-26 09:14 | 50.16877 | 9.03309 | 29889 ft | 450 kts | 139° |
| 2026-04-26 09:14 | 50.14606 | 9.06686 | 30204 ft | 452 kts | 139° |
| 2026-04-26 09:15 | 50.12328 | 9.10068 | 30481 ft | 454 kts | 139° |
| 2026-04-26 09:15 | 50.10037 | 9.13467 | 30733 ft | 455 kts | 139° |
| 2026-04-26 09:15 | 50.07738 | 9.16871 | 30984 ft | 457 kts | 139° |
| 2026-04-26 09:15 | 50.05426 | 9.20288 | 31216 ft | 459 kts | 139° |
| 2026-04-26 09:16 | 50.03110 | 9.23714 | 31546 ft | 459 kts | 139° |
| 2026-04-26 09:16 | 50.00798 | 9.27134 | 31924 ft | 457 kts | 139° |
| 2026-04-26 09:16 | 49.98501 | 9.30529 | 32304 ft | 455 kts | 139° |
| 2026-04-26 09:16 | 49.96207 | 9.33917 | 32624 ft | 455 kts | 139° |
| 2026-04-26 09:17 | 49.93908 | 9.37305 | 32913 ft | 455 kts | 139° |
| 2026-04-26 09:17 | 49.91612 | 9.40684 | 33236 ft | 454 kts | 139° |
| 2026-04-26 09:17 | 49.89320 | 9.44053 | 33579 ft | 453 kts | 139° |
| 2026-04-26 09:17 | 49.87032 | 9.47413 | 33899 ft | 453 kts | 139° |
| 2026-04-26 09:18 | 49.84746 | 9.50764 | 34197 ft | 453 kts | 139° |
| 2026-04-26 09:18 | 49.82457 | 9.54113 | 34448 ft | 452 kts | 139° |
| 2026-04-26 09:18 | 49.80165 | 9.57454 | 34699 ft | 452 kts | 139° |
| 2026-04-26 09:18 | 49.77873 | 9.60781 | 34902 ft | 453 kts | 140° |
| 2026-04-26 09:19 | 49.75570 | 9.64115 | 35053 ft | 454 kts | 140° |
| 2026-04-26 09:19 | 49.73263 | 9.67451 | 35291 ft | 454 kts | 140° |
| 2026-04-26 09:19 | 49.70955 | 9.70786 | 35560 ft | 453 kts | 140° |
| 2026-04-26 09:19 | 49.68655 | 9.74106 | 35782 ft | 453 kts | 140° |
| 2026-04-26 09:20 | 49.66349 | 9.77432 | 35963 ft | 454 kts | 140° |
| 2026-04-26 09:20 | 49.64041 | 9.80757 | 36159 ft | 454 kts | 140° |
| 2026-04-26 09:20 | 49.61733 | 9.84077 | 36385 ft | 454 kts | 140° |
| 2026-04-26 09:20 | 49.59420 | 9.87400 | 36588 ft | 454 kts | 140° |
| 2026-04-26 09:21 | 49.57107 | 9.90718 | 36776 ft | 454 kts | 140° |
| 2026-04-26 09:21 | 49.54794 | 9.94033 | 36948 ft | 455 kts | 139° |
| 2026-04-26 09:21 | 49.52473 | 9.97352 | 37071 ft | 456 kts | 140° |
| 2026-04-26 09:21 | 49.50146 | 10.00677 | 37212 ft | 457 kts | 140° |
| 2026-04-26 09:22 | 49.47813 | 10.04006 | 37268 ft | 459 kts | 140° |
| 2026-04-26 09:22 | 49.43114 | 10.10697 | 37259 ft | 460 kts | 140° |
| 2026-04-26 09:23 | 49.38448 | 10.17327 | 37258 ft | 454 kts | 140° |
| 2026-04-26 09:23 | 49.33843 | 10.23850 | 37270 ft | 452 kts | 140° |
| 2026-04-26 09:24 | 49.29228 | 10.30370 | 37271 ft | 450 kts | 140° |
| 2026-04-26 09:24 | 49.24619 | 10.36858 | 37279 ft | 449 kts | 141° |
| 2026-04-26 09:25 | 49.19519 | 10.42236 | 37303 ft | 445 kts | 152° |
| 2026-04-26 09:25 | 49.14154 | 10.46999 | 37306 ft | 446 kts | 153° |
| 2026-04-26 09:26 | 49.08776 | 10.51812 | 37292 ft | 449 kts | 152° |
| 2026-04-26 09:26 | 49.03392 | 10.56686 | 37273 ft | 451 kts | 152° |
| 2026-04-26 09:27 | 48.97988 | 10.61583 | 37289 ft | 453 kts | 152° |
| 2026-04-26 09:27 | 48.92554 | 10.66494 | 37287 ft | 455 kts | 152° |
| 2026-04-26 09:28 | 48.87088 | 10.71419 | 37292 ft | 457 kts | 152° |
| 2026-04-26 09:28 | 48.81699 | 10.76434 | 37262 ft | 459 kts | 145° |
| 2026-04-26 09:29 | 48.77111 | 10.83212 | 37280 ft | 462 kts | 134° |
| 2026-04-26 09:29 | 48.72856 | 10.90520 | 37272 ft | 461 kts | 133° |
| 2026-04-26 09:30 | 48.68591 | 10.97772 | 37263 ft | 461 kts | 134° |
| 2026-04-26 09:30 | 48.64299 | 11.04968 | 37268 ft | 460 kts | 134° |
| 2026-04-26 09:31 | 48.60004 | 11.12119 | 37271 ft | 459 kts | 134° |
| 2026-04-26 09:31 | 48.55738 | 11.19201 | 37262 ft | 458 kts | 134° |
| 2026-04-26 09:32 | 48.51447 | 11.26308 | 37238 ft | 457 kts | 134° |
| 2026-04-26 09:32 | 48.47162 | 11.33389 | 37248 ft | 457 kts | 134° |
| 2026-04-26 09:33 | 48.42877 | 11.40451 | 37259 ft | 456 kts | 134° |
| 2026-04-26 09:33 | 48.38583 | 11.47509 | 37263 ft | 457 kts | 134° |
| 2026-04-26 09:34 | 48.34286 | 11.54553 | 37263 ft | 457 kts | 134° |
| 2026-04-26 09:34 | 48.29985 | 11.61587 | 37264 ft | 458 kts | 134° |
| 2026-04-26 09:35 | 48.25645 | 11.68607 | 37266 ft | 458 kts | 136° |
| 2026-04-26 09:35 | 48.21005 | 11.75145 | 37268 ft | 458 kts | 140° |
| 2026-04-26 09:36 | 48.16256 | 11.81500 | 37268 ft | 458 kts | 140° |
| 2026-04-26 09:36 | 48.11507 | 11.87907 | 37249 ft | 459 kts | 140° |
| 2026-04-26 09:37 | 48.06779 | 11.94345 | 37248 ft | 460 kts | 140° |
| 2026-04-26 09:37 | 48.02051 | 12.00789 | 37237 ft | 460 kts | 139° |
| 2026-04-26 09:38 | 47.97312 | 12.07232 | 37236 ft | 461 kts | 139° |
| 2026-04-26 09:38 | 47.92563 | 12.13669 | 37240 ft | 461 kts | 140° |
| 2026-04-26 09:39 | 47.87804 | 12.20101 | 37239 ft | 461 kts | 140° |
| 2026-04-26 09:39 | 47.83046 | 12.26515 | 37237 ft | 462 kts | 140° |
| 2026-04-26 09:40 | 47.78282 | 12.32921 | 37230 ft | 462 kts | 140° |
| 2026-04-26 09:40 | 47.73511 | 12.39322 | 37217 ft | 462 kts | 140° |
| 2026-04-26 09:41 | 47.68738 | 12.45709 | 37220 ft | 461 kts | 140° |
| 2026-04-26 09:41 | 47.63970 | 12.52072 | 37228 ft | 461 kts | 140° |
| 2026-04-26 09:42 | 47.58833 | 12.57675 | 37235 ft | 457 kts | 150° |
| 2026-04-26 09:42 | 47.53394 | 12.62601 | 37226 ft | 458 kts | 151° |
| 2026-04-26 09:43 | 47.47959 | 12.67505 | 37207 ft | 458 kts | 150° |
| 2026-04-26 09:43 | 47.42539 | 12.72460 | 37207 ft | 458 kts | 150° |
| 2026-04-26 09:44 | 47.37136 | 12.77428 | 37209 ft | 457 kts | 150° |
| 2026-04-26 09:44 | 47.31739 | 12.82387 | 37211 ft | 457 kts | 150° |
| 2026-04-26 09:45 | 47.26335 | 12.87340 | 37205 ft | 457 kts | 150° |
| 2026-04-26 09:45 | 47.21814 | 12.91475 | 37189 ft | 457 kts | 150° |
| 2026-04-26 09:46 | 47.16413 | 12.96401 | 37200 ft | 457 kts | 150° |
| 2026-04-26 09:46 | 47.10998 | 13.01327 | 37194 ft | 458 kts | 150° |
| 2026-04-26 09:47 | 47.05570 | 13.06251 | 37190 ft | 459 kts | 150° |
| 2026-04-26 09:47 | 47.00139 | 13.11169 | 37167 ft | 459 kts | 150° |
| 2026-04-26 09:48 | 46.94705 | 13.16077 | 37162 ft | 459 kts | 150° |
| 2026-04-26 09:48 | 46.89267 | 13.20977 | 37156 ft | 458 kts | 150° |
| 2026-04-26 09:49 | 46.83838 | 13.25858 | 37152 ft | 458 kts | 150° |
| 2026-04-26 09:49 | 46.78409 | 13.30725 | 37141 ft | 458 kts | 150° |
| 2026-04-26 09:50 | 46.72977 | 13.35585 | 37145 ft | 458 kts | 150° |
| 2026-04-26 09:50 | 46.67540 | 13.40436 | 37126 ft | 458 kts | 150° |
| 2026-04-26 09:51 | 46.62096 | 13.45283 | 37120 ft | 459 kts | 150° |
| 2026-04-26 09:51 | 46.56650 | 13.50120 | 37109 ft | 458 kts | 150° |
| 2026-04-26 09:52 | 46.51243 | 13.54909 | 37129 ft | 457 kts | 150° |
| 2026-04-26 09:52 | 46.43092 | 13.62113 | 37124 ft | 458 kts | 150° |
| 2026-04-26 09:53 | 46.37635 | 13.66918 | 37116 ft | 459 kts | 150° |
| 2026-04-26 09:53 | 46.32172 | 13.71719 | 37122 ft | 459 kts | 150° |
| 2026-04-26 09:54 | 46.26709 | 13.76508 | 37116 ft | 459 kts | 150° |
| 2026-04-26 09:54 | 46.21247 | 13.81285 | 37095 ft | 458 kts | 150° |
| 2026-04-26 09:55 | 46.15797 | 13.86042 | 37115 ft | 457 kts | 150° |
| 2026-04-26 09:55 | 46.10345 | 13.90788 | 37092 ft | 457 kts | 150° |
| 2026-04-26 09:56 | 46.04902 | 13.95513 | 37116 ft | 457 kts | 150° |
| 2026-04-26 09:56 | 45.99450 | 14.00237 | 37102 ft | 457 kts | 150° |
| 2026-04-26 09:57 | 45.93989 | 14.04958 | 37112 ft | 458 kts | 150° |
| 2026-04-26 09:57 | 45.88528 | 14.09668 | 37114 ft | 458 kts | 150° |
| 2026-04-26 09:58 | 45.83048 | 14.14382 | 37105 ft | 459 kts | 150° |
| 2026-04-26 09:58 | 45.77572 | 14.19083 | 37112 ft | 459 kts | 150° |
| 2026-04-26 09:59 | 45.72088 | 14.23780 | 37105 ft | 459 kts | 150° |
| 2026-04-26 09:59 | 45.66593 | 14.28475 | 37099 ft | 460 kts | 150° |
| 2026-04-26 10:00 | 45.61093 | 14.33164 | 37111 ft | 461 kts | 150° |
| 2026-04-26 10:00 | 45.55585 | 14.37848 | 37103 ft | 461 kts | 150° |
| 2026-04-26 10:01 | 45.50073 | 14.42526 | 37104 ft | 460 kts | 150° |
| 2026-04-26 10:01 | 45.44566 | 14.47189 | 37100 ft | 461 kts | 150° |
| 2026-04-26 10:02 | 45.39056 | 14.51843 | 37095 ft | 460 kts | 150° |
| 2026-04-26 10:02 | 45.33588 | 14.56451 | 37108 ft | 460 kts | 150° |
| 2026-04-26 10:03 | 45.28047 | 14.61109 | 37104 ft | 460 kts | 150° |
| 2026-04-26 10:03 | 45.22562 | 14.65711 | 37095 ft | 460 kts | 150° |
| 2026-04-26 10:04 | 45.17050 | 14.70324 | 37100 ft | 460 kts | 150° |
| 2026-04-26 10:04 | 45.11542 | 14.74924 | 37103 ft | 460 kts | 150° |
| 2026-04-26 10:05 | 45.06028 | 14.79518 | 37104 ft | 460 kts | 150° |
| 2026-04-26 10:05 | 45.00516 | 14.84101 | 37107 ft | 460 kts | 150° |
| 2026-04-26 10:06 | 44.95000 | 14.88676 | 37104 ft | 460 kts | 151° |
| 2026-04-26 10:06 | 44.89478 | 14.93246 | 37109 ft | 460 kts | 151° |
| 2026-04-26 10:07 | 44.83944 | 14.97815 | 37103 ft | 461 kts | 151° |
| 2026-04-26 10:07 | 44.78399 | 15.02384 | 37110 ft | 462 kts | 151° |
| 2026-04-26 10:08 | 44.72848 | 15.06947 | 37097 ft | 462 kts | 151° |
| 2026-04-26 10:08 | 44.67303 | 15.11495 | 37096 ft | 461 kts | 151° |
| 2026-04-26 10:09 | 44.61764 | 15.16028 | 37105 ft | 460 kts | 151° |
| 2026-04-26 10:09 | 44.56239 | 15.20539 | 37101 ft | 459 kts | 151° |
| 2026-04-26 10:10 | 44.50712 | 15.25042 | 37103 ft | 459 kts | 151° |
| 2026-04-26 10:10 | 44.45189 | 15.29532 | 37108 ft | 459 kts | 151° |
| 2026-04-26 10:11 | 44.39706 | 15.33979 | 37106 ft | 458 kts | 151° |
| 2026-04-26 10:11 | 44.34188 | 15.38445 | 37094 ft | 458 kts | 151° |
| 2026-04-26 10:12 | 44.28673 | 15.42898 | 37099 ft | 458 kts | 151° |
| 2026-04-26 10:12 | 44.23154 | 15.47345 | 37102 ft | 458 kts | 151° |
| 2026-04-26 10:13 | 44.17629 | 15.51788 | 37103 ft | 458 kts | 151° |
| 2026-04-26 10:13 | 44.12108 | 15.56217 | 37092 ft | 458 kts | 151° |
| 2026-04-26 10:14 | 44.06586 | 15.60637 | 37098 ft | 458 kts | 151° |
| 2026-04-26 10:14 | 44.01061 | 15.65051 | 37099 ft | 458 kts | 151° |
| 2026-04-26 10:15 | 43.95531 | 15.69459 | 37100 ft | 458 kts | 151° |
| 2026-04-26 10:15 | 43.90000 | 15.73858 | 37095 ft | 459 kts | 151° |
| 2026-04-26 10:16 | 43.84461 | 15.78254 | 37101 ft | 458 kts | 152° |
| 2026-04-26 10:16 | 43.78928 | 15.82636 | 37091 ft | 458 kts | 152° |
| 2026-04-26 10:17 | 43.73385 | 15.87015 | 37095 ft | 458 kts | 152° |
| 2026-04-26 10:17 | 43.67837 | 15.91390 | 37087 ft | 459 kts | 152° |
| 2026-04-26 10:18 | 43.62288 | 15.95756 | 37104 ft | 459 kts | 152° |
| 2026-04-26 10:18 | 43.56745 | 16.00108 | 37105 ft | 458 kts | 152° |
| 2026-04-26 10:19 | 43.51195 | 16.04456 | 37100 ft | 458 kts | 152° |
| 2026-04-26 10:19 | 43.45655 | 16.08787 | 37090 ft | 458 kts | 152° |
| 2026-04-26 10:20 | 43.41052 | 16.12379 | 37110 ft | 457 kts | 152° |
| 2026-04-26 10:20 | 43.34618 | 16.17388 | 37109 ft | 457 kts | 152° |
| 2026-04-26 10:21 | 43.29089 | 16.21683 | 37102 ft | 456 kts | 152° |
| 2026-04-26 10:21 | 43.23565 | 16.25966 | 37105 ft | 456 kts | 152° |
| 2026-04-26 10:22 | 43.18045 | 16.30236 | 37114 ft | 455 kts | 152° |
| 2026-04-26 10:22 | 43.12520 | 16.34501 | 37105 ft | 455 kts | 152° |
| 2026-04-26 10:23 | 43.06998 | 16.38755 | 37112 ft | 455 kts | 153° |
| 2026-04-26 10:23 | 43.01472 | 16.43002 | 37099 ft | 456 kts | 153° |
| 2026-04-26 10:24 | 42.95945 | 16.47242 | 37112 ft | 456 kts | 153° |
| 2026-04-26 10:24 | 42.90413 | 16.51477 | 37113 ft | 456 kts | 153° |
| 2026-04-26 10:25 | 42.84871 | 16.55710 | 37116 ft | 457 kts | 153° |
| 2026-04-26 10:25 | 42.80260 | 16.59227 | 37106 ft | 457 kts | 153° |
| 2026-04-26 10:26 | 42.74700 | 16.63458 | 37113 ft | 457 kts | 153° |
| 2026-04-26 10:26 | 42.69138 | 16.67683 | 37111 ft | 458 kts | 153° |
| 2026-04-26 10:27 | 42.63575 | 16.71899 | 37110 ft | 458 kts | 153° |
| 2026-04-26 10:27 | 42.58007 | 16.76110 | 37106 ft | 458 kts | 153° |
| 2026-04-26 10:28 | 42.52441 | 16.80311 | 37112 ft | 458 kts | 153° |
| 2026-04-26 10:28 | 42.46873 | 16.84506 | 37111 ft | 458 kts | 153° |
| 2026-04-26 10:29 | 42.41304 | 16.88692 | 37111 ft | 457 kts | 153° |
| 2026-04-26 10:29 | 42.35742 | 16.92864 | 37098 ft | 457 kts | 153° |
| 2026-04-26 10:30 | 42.30190 | 16.97021 | 37110 ft | 456 kts | 153° |
| 2026-04-26 10:30 | 42.24644 | 17.01164 | 37114 ft | 455 kts | 153° |
| 2026-04-26 10:31 | 42.19108 | 17.05293 | 37113 ft | 454 kts | 153° |
| 2026-04-26 10:31 | 42.13581 | 17.09405 | 37099 ft | 454 kts | 153° |
| 2026-04-26 10:32 | 42.08057 | 17.13508 | 37110 ft | 453 kts | 153° |
| 2026-04-26 10:32 | 42.02544 | 17.17594 | 37110 ft | 452 kts | 153° |
| 2026-04-26 10:33 | 41.97034 | 17.21672 | 37110 ft | 451 kts | 153° |
| 2026-04-26 10:33 | 41.91514 | 17.25674 | 37108 ft | 450 kts | 156° |
| 2026-04-26 10:34 | 41.85808 | 17.29085 | 37114 ft | 448 kts | 159° |
| 2026-04-26 10:34 | 41.80060 | 17.32318 | 37111 ft | 448 kts | 159° |
| 2026-04-26 10:35 | 41.74320 | 17.35600 | 37112 ft | 448 kts | 159° |
| 2026-04-26 10:35 | 41.68593 | 17.38921 | 37116 ft | 449 kts | 159° |
| 2026-04-26 10:36 | 41.62868 | 17.42250 | 37111 ft | 449 kts | 159° |
| 2026-04-26 10:36 | 41.57157 | 17.45619 | 37107 ft | 450 kts | 154° |
| 2026-04-26 10:37 | 41.54520 | 17.47889 | 37109 ft | 453 kts | 142° |
| 2026-04-26 10:37 | 41.52130 | 17.50546 | 37118 ft | 453 kts | 142° |
| 2026-04-26 10:37 | 41.47284 | 17.55934 | 37111 ft | 454 kts | 142° |
| 2026-04-26 10:38 | 41.42413 | 17.61284 | 37109 ft | 454 kts | 142° |
| 2026-04-26 10:38 | 41.37522 | 17.66612 | 37109 ft | 454 kts | 142° |
| 2026-04-26 10:39 | 41.32621 | 17.71929 | 37109 ft | 455 kts | 143° |
| 2026-04-26 10:39 | 41.27715 | 17.77240 | 37105 ft | 455 kts | 143° |
| 2026-04-26 10:40 | 41.22799 | 17.82553 | 37111 ft | 455 kts | 143° |
| 2026-04-26 10:40 | 41.17879 | 17.87861 | 37112 ft | 455 kts | 143° |
| 2026-04-26 10:41 | 41.12959 | 17.93158 | 37104 ft | 455 kts | 143° |
| 2026-04-26 10:41 | 41.08042 | 17.98441 | 37106 ft | 455 kts | 143° |
| 2026-04-26 10:42 | 41.05569 | 18.01094 | 36706 ft | 460 kts | 143° |
| 2026-04-26 10:42 | 41.03082 | 18.03759 | 36252 ft | 458 kts | 143° |
| 2026-04-26 10:42 | 41.00607 | 18.06410 | 35690 ft | 457 kts | 143° |
| 2026-04-26 10:42 | 40.98133 | 18.09057 | 35120 ft | 458 kts | 143° |
| 2026-04-26 10:43 | 40.95655 | 18.11705 | 34528 ft | 458 kts | 143° |
| 2026-04-26 10:43 | 40.93170 | 18.14358 | 33912 ft | 459 kts | 143° |
| 2026-04-26 10:43 | 40.90683 | 18.17009 | 33320 ft | 458 kts | 143° |
| 2026-04-26 10:43 | 40.88218 | 18.19637 | 32880 ft | 454 kts | 143° |
| 2026-04-26 10:44 | 40.85769 | 18.22244 | 32433 ft | 450 kts | 143° |
| 2026-04-26 10:44 | 40.83339 | 18.24829 | 32005 ft | 446 kts | 143° |
| 2026-04-26 10:44 | 40.80933 | 18.27386 | 31585 ft | 442 kts | 143° |
| 2026-04-26 10:44 | 40.78547 | 18.29919 | 31172 ft | 439 kts | 143° |
| 2026-04-26 10:45 | 40.76179 | 18.32430 | 30762 ft | 436 kts | 143° |
| 2026-04-26 10:45 | 40.73823 | 18.34926 | 30356 ft | 433 kts | 143° |
| 2026-04-26 10:45 | 40.71480 | 18.37405 | 29905 ft | 430 kts | 143° |
| 2026-04-26 10:45 | 40.69157 | 18.39860 | 29453 ft | 426 kts | 143° |
| 2026-04-26 10:46 | 40.66857 | 18.42291 | 29036 ft | 421 kts | 143° |
| 2026-04-26 10:46 | 40.64580 | 18.44694 | 28608 ft | 418 kts | 143° |
| 2026-04-26 10:46 | 40.62321 | 18.47076 | 28199 ft | 414 kts | 143° |
| 2026-04-26 10:46 | 40.60080 | 18.49436 | 27775 ft | 411 kts | 143° |
| 2026-04-26 10:47 | 40.57853 | 18.51781 | 27361 ft | 408 kts | 143° |
| 2026-04-26 10:47 | 40.55647 | 18.54100 | 26957 ft | 405 kts | 143° |
| 2026-04-26 10:47 | 40.53447 | 18.56412 | 26371 ft | 407 kts | 143° |
| 2026-04-26 10:47 | 40.51222 | 18.58745 | 25796 ft | 410 kts | 143° |
| 2026-04-26 10:48 | 40.48998 | 18.61078 | 25326 ft | 409 kts | 143° |
| 2026-04-26 10:48 | 40.46776 | 18.63406 | 24850 ft | 408 kts | 143° |
| 2026-04-26 10:48 | 40.44559 | 18.65728 | 24383 ft | 407 kts | 143° |
| 2026-04-26 10:48 | 40.42341 | 18.68049 | 23917 ft | 406 kts | 143° |
| 2026-04-26 10:49 | 40.40133 | 18.70356 | 23426 ft | 405 kts | 143° |
| 2026-04-26 10:49 | 40.37930 | 18.72658 | 22883 ft | 404 kts | 142° |
| 2026-04-26 10:49 | 40.35731 | 18.74952 | 22351 ft | 403 kts | 142° |
| 2026-04-26 10:49 | 40.33539 | 18.77237 | 21828 ft | 402 kts | 142° |
| 2026-04-26 10:50 | 40.31352 | 18.79516 | 21331 ft | 401 kts | 142° |
| 2026-04-26 10:50 | 40.29908 | 18.81019 | 20997 ft | 400 kts | 142° |
| 2026-04-26 10:50 | 40.26998 | 18.84046 | 20335 ft | 398 kts | 142° |
| 2026-04-26 10:50 | 40.24831 | 18.86297 | 19850 ft | 397 kts | 142° |
| 2026-04-26 10:51 | 40.22669 | 18.88542 | 19364 ft | 396 kts | 142° |
| 2026-04-26 10:51 | 40.18369 | 18.93001 | 18428 ft | 393 kts | 142° |
| 2026-04-26 10:51 | 40.16228 | 18.95218 | 17903 ft | 392 kts | 142° |
| 2026-04-26 10:52 | 40.14093 | 18.97427 | 17385 ft | 390 kts | 142° |
| 2026-04-26 10:52 | 40.11964 | 18.99629 | 16867 ft | 389 kts | 142° |
| 2026-04-26 10:52 | 40.09845 | 19.01818 | 16363 ft | 387 kts | 142° |
| 2026-04-26 10:52 | 40.07737 | 19.03994 | 15866 ft | 386 kts | 142° |
| 2026-04-26 10:53 | 40.05634 | 19.06162 | 15377 ft | 384 kts | 142° |
| 2026-04-26 10:53 | 40.03541 | 19.08319 | 14901 ft | 382 kts | 142° |
| 2026-04-26 10:53 | 40.01486 | 19.10435 | 14424 ft | 381 kts | 142° |
| 2026-04-26 10:54 | 39.97347 | 19.14692 | 13435 ft | 377 kts | 141° |
| 2026-04-26 10:54 | 39.95265 | 19.16831 | 12916 ft | 375 kts | 141° |
| 2026-04-26 10:54 | 39.93246 | 19.18904 | 12410 ft | 374 kts | 141° |
| 2026-04-26 10:54 | 39.91205 | 19.20997 | 11913 ft | 372 kts | 141° |
| 2026-04-26 10:55 | 39.89173 | 19.23079 | 11426 ft | 370 kts | 141° |
| 2026-04-26 10:55 | 39.87150 | 19.25151 | 10976 ft | 368 kts | 141° |
| 2026-04-26 10:55 | 39.85177 | 19.27169 | 10893 ft | 354 kts | 141° |
| 2026-04-26 10:55 | 39.83910 | 19.28465 | 10830 ft | 346 kts | 141° |
| 2026-04-26 10:56 | 39.81435 | 19.30994 | 10722 ft | 330 kts | 141° |
| 2026-04-26 10:56 | 39.79656 | 19.32811 | 10646 ft | 319 kts | 141° |
| 2026-04-26 10:56 | 39.77937 | 19.34565 | 10551 ft | 310 kts | 141° |
| 2026-04-26 10:56 | 39.76253 | 19.36282 | 10317 ft | 307 kts | 141° |
| 2026-04-26 10:57 | 39.74571 | 19.37996 | 10007 ft | 307 kts | 141° |
| 2026-04-26 10:57 | 39.72896 | 19.39703 | 9676 ft | 306 kts | 141° |
| 2026-04-26 10:57 | 39.71227 | 19.41402 | 9385 ft | 304 kts | 141° |
| 2026-04-26 10:57 | 39.69571 | 19.43086 | 9104 ft | 301 kts | 141° |
| 2026-04-26 10:58 | 39.67924 | 19.44761 | 8815 ft | 299 kts | 141° |
| 2026-04-26 10:58 | 39.66291 | 19.46420 | 8539 ft | 297 kts | 142° |
| 2026-04-26 10:58 | 39.64674 | 19.48062 | 8292 ft | 294 kts | 142° |
| 2026-04-26 10:58 | 39.63068 | 19.49692 | 8015 ft | 292 kts | 141° |
| 2026-04-26 10:59 | 39.61470 | 19.51313 | 7769 ft | 291 kts | 141° |
| 2026-04-26 10:59 | 39.59876 | 19.52928 | 7520 ft | 290 kts | 141° |
| 2026-04-26 10:59 | 39.58307 | 19.54517 | 7286 ft | 289 kts | 141° |
| 2026-04-26 10:59 | 39.56704 | 19.56140 | 7042 ft | 288 kts | 141° |
| 2026-04-26 11:00 | 39.55150 | 19.57711 | 6806 ft | 286 kts | 141° |
| 2026-04-26 11:00 | 39.53585 | 19.59294 | 6564 ft | 285 kts | 141° |
| 2026-04-26 11:00 | 39.52020 | 19.60877 | 6314 ft | 284 kts | 141° |
| 2026-04-26 11:00 | 39.50465 | 19.62447 | 6064 ft | 283 kts | 141° |
| 2026-04-26 11:01 | 39.48917 | 19.64010 | 5811 ft | 282 kts | 141° |
| 2026-04-26 11:01 | 39.47375 | 19.65567 | 5555 ft | 281 kts | 141° |
| 2026-04-26 11:01 | 39.45837 | 19.67118 | 5308 ft | 280 kts | 141° |
| 2026-04-26 11:01 | 39.44307 | 19.68660 | 5065 ft | 278 kts | 141° |
| 2026-04-26 11:02 | 39.42782 | 19.70196 | 4817 ft | 276 kts | 141° |
| 2026-04-26 11:02 | 39.41274 | 19.71714 | 4605 ft | 272 kts | 142° |
| 2026-04-26 11:02 | 39.39794 | 19.73202 | 4431 ft | 267 kts | 141° |
| 2026-04-26 11:02 | 39.38586 | 19.74966 | 4215 ft | 262 kts | 113° |
| 2026-04-26 11:03 | 39.38236 | 19.77199 | 4097 ft | 248 kts | 88° |
| 2026-04-26 11:03 | 39.38414 | 19.79352 | 3916 ft | 235 kts | 77° |
| 2026-04-26 11:03 | 39.38715 | 19.81369 | 3780 ft | 221 kts | 77° |
| 2026-04-26 11:03 | 39.39001 | 19.83259 | 3651 ft | 207 kts | 77° |
| 2026-04-26 11:04 | 39.39262 | 19.85032 | 3506 ft | 195 kts | 78° |
| 2026-04-26 11:04 | 39.39501 | 19.86709 | 3363 ft | 185 kts | 77° |
| 2026-04-26 11:04 | 39.39730 | 19.88337 | 3230 ft | 182 kts | 78° |
| 2026-04-26 11:04 | 39.39953 | 19.89935 | 3103 ft | 180 kts | 78° |
| 2026-04-26 11:05 | 39.40175 | 19.91534 | 2984 ft | 182 kts | 78° |
| 2026-04-26 11:05 | 39.40451 | 19.93130 | 2915 ft | 181 kts | 66° |
| 2026-04-26 11:05 | 39.41093 | 19.94482 | 2912 ft | 175 kts | 44° |
| 2026-04-26 11:05 | 39.42051 | 19.95403 | 2909 ft | 174 kts | 24° |
| 2026-04-26 11:06 | 39.43225 | 19.95817 | 2916 ft | 178 kts | 4° |
| 2026-04-26 11:06 | 39.44060 | 19.95814 | 2899 ft | 175 kts | 352° |
| 2026-04-26 11:06 | 39.45618 | 19.95400 | 2945 ft | 174 kts | 346° |
| 2026-04-26 11:06 | 39.46807 | 19.95029 | 2864 ft | 178 kts | 348° |
| 2026-04-26 11:07 | 39.48037 | 19.94678 | 2525 ft | 181 kts | 347° |
| 2026-04-26 11:07 | 39.49250 | 19.94332 | 2275 ft | 177 kts | 347° |
| 2026-04-26 11:07 | 39.50444 | 19.93990 | 2039 ft | 171 kts | 347° |
| 2026-04-26 11:07 | 39.51573 | 19.93657 | 1830 ft | 167 kts | 346° |
| 2026-04-26 11:08 | 39.52322 | 19.93438 | 1642 ft | 163 kts | 347° |
| 2026-04-26 11:08 | 39.53368 | 19.93131 | 1418 ft | 147 kts | 344° |
| 2026-04-26 11:08 | 39.54337 | 19.92806 | 1309 ft | 144 kts | 343° |
| 2026-04-26 11:08 | 39.55299 | 19.92476 | 961 ft | 140 kts | 343° |
| 2026-04-26 11:09 | 39.56274 | 19.92214 | 577 ft | 147 kts | 351° |
| 2026-04-26 11:09 | 39.57298 | 19.91952 | 465 ft | 154 kts | 349° |
| 2026-04-26 11:09 | 39.58353 | 19.91689 | 268 ft | 155 kts | 351° |
| 2026-04-26 11:09 | 39.59414 | 19.91415 | 27 ft | 154 kts | 351° |
| 2026-04-26 11:10 | 39.60330 | 19.91178 | 21 ft | 105 kts | 349° |
| 2026-04-26 11:10 | 39.60837 | 19.91047 | 19 ft | 48 kts | 348° |
| 2026-04-26 11:10 | 39.61012 | 19.91013 | 18 ft | 13 kts | 18° |
| 2026-04-26 11:10 | 39.61059 | 19.91093 | 18 ft | 8 kts | 76° |
| 2026-04-26 11:11 | 39.61022 | 19.91132 | 18 ft | 8 kts | 168° |
| 2026-04-26 11:11 | 39.60972 | 19.91145 | 18 ft | 7 kts | 168° |
| 2026-04-26 11:11 | 39.60923 | 19.91158 | 18 ft | 7 kts | 168° |
| 2026-04-26 11:11 | 39.60876 | 19.91171 | 17 ft | 7 kts | 168° |
| 2026-04-26 11:12 | 39.60829 | 19.91184 | 18 ft | 7 kts | 168° |
| 2026-04-26 11:12 | 39.60774 | 19.91198 | 17 ft | 9 kts | 168° |
| 2026-04-26 11:12 | 39.60709 | 19.91216 | 20 ft | 6 kts | 168° |
| 2026-04-26 11:12 | 39.60691 | 19.91241 | 17 ft | 4 kts | 96° |
| 2026-04-26 11:13 | 39.60695 | 19.91279 | 17 ft | 5 kts | 79° |
| 2026-04-26 11:13 | 39.60702 | 19.91327 | 17 ft | 5 kts | 79° |
| 2026-04-26 11:13 | 39.60705 | 19.91350 | 17 ft | 2 kts | 79° |
| 2026-04-26 11:13 | 39.60706 | 19.91354 | 17 ft | 0 kts | 79° |